sensor_id;sensor_type;location;lat;lon;timestamp;temperature;humidity
30063;DHT22;16889;67.864;24.990;2023-12-20T00:03:28;-8.00;99.90
30063;DHT22;16889;67.864;24.990;2023-12-20T00:08:14;-8.00;99.90
30063;DHT22;16889;67.864;24.990;2023-12-20T00:13:00;-8.10;99.90
30063;DHT22;16889;67.864;24.990;2023-12-20T00:17:46;-8.00;99.90
30063;DHT22;16889;67.864;24.990;2023-12-20T00:22:32;-8.10;99.90
30063;DHT22;16889;67.864;24.990;2023-12-20T00:27:18;-8.20;99.90
30063;DHT22;16889;67.864;24.990;2023-12-20T00:32:04;-8.20;99.90
30063;DHT22;16889;67.864;24.990;2023-12-20T00:36:50;-8.20;99.90
30063;DHT22;16889;67.864;24.990;2023-12-20T00:41:36;-8.30;99.90
30063;DHT22;16889;67.864;24.990;2023-12-20T00:46:23;-8.30;99.90
30063;DHT22;16889;67.864;24.990;2023-12-20T00:51:08;-8.30;99.90
30063;DHT22;16889;67.864;24.990;2023-12-20T00:55:55;-8.30;99.90
30063;DHT22;16889;67.864;24.990;2023-12-20T01:00:41;-8.20;99.90
30063;DHT22;16889;67.864;24.990;2023-12-20T01:05:30;-8.30;99.90
30063;DHT22;16889;67.864;24.990;2023-12-20T01:10:16;-8.40;99.90
30063;DHT22;16889;67.864;24.990;2023-12-20T01:15:03;-8.40;99.90
30063;DHT22;16889;67.864;24.990;2023-12-20T01:19:49;-8.40;99.90
30063;DHT22;16889;67.864;24.990;2023-12-20T01:24:35;-8.50;99.90
30063;DHT22;16889;67.864;24.990;2023-12-20T01:29:20;-8.60;99.90
30063;DHT22;16889;67.864;24.990;2023-12-20T01:34:07;-8.70;99.90
30063;DHT22;16889;67.864;24.990;2023-12-20T01:38:52;-8.70;99.90
30063;DHT22;16889;67.864;24.990;2023-12-20T01:43:39;-8.70;99.90
30063;DHT22;16889;67.864;24.990;2023-12-20T01:48:25;-8.70;99.90
30063;DHT22;16889;67.864;24.990;2023-12-20T01:53:12;-8.70;99.90
30063;DHT22;16889;67.864;24.990;2023-12-20T01:57:59;-8.70;99.90
30063;DHT22;16889;67.864;24.990;2023-12-20T02:02:46;-8.70;99.90
30063;DHT22;16889;67.864;24.990;2023-12-20T02:07:32;-8.70;99.90
30063;DHT22;16889;67.864;24.990;2023-12-20T02:12:20;-8.80;99.90
30063;DHT22;16889;67.864;24.990;2023-12-20T02:17:07;-8.90;99.90
30063;DHT22;16889;67.864;24.990;2023-12-20T02:22:08;-8.90;99.90
30063;DHT22;16889;67.864;24.990;2023-12-20T02:26:54;-8.80;99.90
30063;DHT22;16889;67.864;24.990;2023-12-20T02:31:40;-8.70;99.90
30063;DHT22;16889;67.864;24.990;2023-12-20T02:36:26;-8.80;99.90
30063;DHT22;16889;67.864;24.990;2023-12-20T02:41:12;-8.90;99.90
30063;DHT22;16889;67.864;24.990;2023-12-20T02:45:58;-8.90;99.90
30063;DHT22;16889;67.864;24.990;2023-12-20T02:50:46;-8.80;99.90
30063;DHT22;16889;67.864;24.990;2023-12-20T02:55:32;-8.80;99.90
30063;DHT22;16889;67.864;24.990;2023-12-20T03:00:18;-8.60;99.90
30063;DHT22;16889;67.864;24.990;2023-12-20T03:05:05;-8.90;99.90
30063;DHT22;16889;67.864;24.990;2023-12-20T03:09:51;-9.10;99.90
30063;DHT22;16889;67.864;24.990;2023-12-20T03:14:37;-9.00;99.90
30063;DHT22;16889;67.864;24.990;2023-12-20T03:19:23;-8.90;99.90
30063;DHT22;16889;67.864;24.990;2023-12-20T03:24:08;-8.70;99.90
30063;DHT22;16889;67.864;24.990;2023-12-20T03:28:54;-8.60;99.90
30063;DHT22;16889;67.864;24.990;2023-12-20T03:33:40;-8.80;99.90
30063;DHT22;16889;67.864;24.990;2023-12-20T03:38:26;-8.90;99.90
30063;DHT22;16889;67.864;24.990;2023-12-20T03:43:12;-8.60;99.90
30063;DHT22;16889;67.864;24.990;2023-12-20T03:47:58;-8.50;99.90
30063;DHT22;16889;67.864;24.990;2023-12-20T03:52:44;-8.30;99.90
30063;DHT22;16889;67.864;24.990;2023-12-20T03:57:30;-8.50;99.90
30063;DHT22;16889;67.864;24.990;2023-12-20T04:02:16;-8.30;99.90
30063;DHT22;16889;67.864;24.990;2023-12-20T04:07:03;-8.00;99.90
30063;DHT22;16889;67.864;24.990;2023-12-20T04:11:49;-8.00;99.90
30063;DHT22;16889;67.864;24.990;2023-12-20T04:16:35;-7.90;99.90
30063;DHT22;16889;67.864;24.990;2023-12-20T04:21:21;-7.80;99.90
30063;DHT22;16889;67.864;24.990;2023-12-20T04:26:07;-7.60;99.90
30063;DHT22;16889;67.864;24.990;2023-12-20T04:30:53;-7.40;99.90
30063;DHT22;16889;67.864;24.990;2023-12-20T04:35:39;-7.30;99.90
30063;DHT22;16889;67.864;24.990;2023-12-20T04:40:26;-7.30;99.90
30063;DHT22;16889;67.864;24.990;2023-12-20T04:45:12;-7.30;99.90
30063;DHT22;16889;67.864;24.990;2023-12-20T04:50:01;-7.30;99.90
30063;DHT22;16889;67.864;24.990;2023-12-20T04:54:47;-7.30;99.90
30063;DHT22;16889;67.864;24.990;2023-12-20T04:59:33;-7.00;99.90
30063;DHT22;16889;67.864;24.990;2023-12-20T05:04:19;-7.00;99.90
30063;DHT22;16889;67.864;24.990;2023-12-20T05:09:06;-7.10;99.90
30063;DHT22;16889;67.864;24.990;2023-12-20T05:13:52;-7.20;99.90
30063;DHT22;16889;67.864;24.990;2023-12-20T05:18:38;-7.10;99.90
30063;DHT22;16889;67.864;24.990;2023-12-20T05:23:24;-7.20;99.90
30063;DHT22;16889;67.864;24.990;2023-12-20T05:28:10;-7.10;99.90
30063;DHT22;16889;67.864;24.990;2023-12-20T05:32:56;-7.10;99.90
30063;DHT22;16889;67.864;24.990;2023-12-20T05:37:42;-6.90;99.90
30063;DHT22;16889;67.864;24.990;2023-12-20T05:42:28;-6.70;99.90
30063;DHT22;16889;67.864;24.990;2023-12-20T05:47:14;-6.50;99.90
30063;DHT22;16889;67.864;24.990;2023-12-20T05:52:00;-6.50;99.90
30063;DHT22;16889;67.864;24.990;2023-12-20T05:56:46;-6.40;99.90
30063;DHT22;16889;67.864;24.990;2023-12-20T06:01:32;-6.40;99.90
30063;DHT22;16889;67.864;24.990;2023-12-20T06:06:18;-6.40;99.90
30063;DHT22;16889;67.864;24.990;2023-12-20T06:11:04;-6.40;99.90
30063;DHT22;16889;67.864;24.990;2023-12-20T06:15:51;-6.50;99.90
30063;DHT22;16889;67.864;24.990;2023-12-20T06:20:37;-6.50;99.90
30063;DHT22;16889;67.864;24.990;2023-12-20T06:25:23;-6.60;99.90
30063;DHT22;16889;67.864;24.990;2023-12-20T06:30:10;-6.60;99.90
30063;DHT22;16889;67.864;24.990;2023-12-20T06:34:56;-6.50;99.90
30063;DHT22;16889;67.864;24.990;2023-12-20T06:39:41;-6.50;99.90
30063;DHT22;16889;67.864;24.990;2023-12-20T06:44:27;-6.40;99.90
30063;DHT22;16889;67.864;24.990;2023-12-20T06:49:13;-6.40;99.90
30063;DHT22;16889;67.864;24.990;2023-12-20T06:54:00;-6.30;99.90
30063;DHT22;16889;67.864;24.990;2023-12-20T06:58:48;-6.10;99.90
30063;DHT22;16889;67.864;24.990;2023-12-20T07:03:34;-6.00;99.90
30063;DHT22;16889;67.864;24.990;2023-12-20T07:08:20;-6.00;99.90
30063;DHT22;16889;67.864;24.990;2023-12-20T07:13:06;-6.10;99.90
30063;DHT22;16889;67.864;24.990;2023-12-20T07:17:53;-6.30;99.90
30063;DHT22;16889;67.864;24.990;2023-12-20T07:22:39;-6.30;99.90
30063;DHT22;16889;67.864;24.990;2023-12-20T07:27:25;-6.40;99.90
30063;DHT22;16889;67.864;24.990;2023-12-20T07:32:11;-6.50;99.90
30063;DHT22;16889;67.864;24.990;2023-12-20T07:36:57;-6.50;99.90
30063;DHT22;16889;67.864;24.990;2023-12-20T07:41:43;-6.60;99.90
30063;DHT22;16889;67.864;24.990;2023-12-20T07:46:29;-6.70;99.90
30063;DHT22;16889;67.864;24.990;2023-12-20T07:51:15;-6.70;99.90
30063;DHT22;16889;67.864;24.990;2023-12-20T07:56:01;-6.70;99.90
30063;DHT22;16889;67.864;24.990;2023-12-20T08:00:47;-7.00;99.90
30063;DHT22;16889;67.864;24.990;2023-12-20T08:05:33;-6.90;99.90
30063;DHT22;16889;67.864;24.990;2023-12-20T08:10:19;-6.80;99.90
30063;DHT22;16889;67.864;24.990;2023-12-20T08:15:06;-6.70;99.90
30063;DHT22;16889;67.864;24.990;2023-12-20T08:19:52;-6.60;99.90
30063;DHT22;16889;67.864;24.990;2023-12-20T08:24:38;-6.60;99.90
30063;DHT22;16889;67.864;24.990;2023-12-20T08:29:24;-6.60;99.90
30063;DHT22;16889;67.864;24.990;2023-12-20T08:34:10;-6.50;99.90
30063;DHT22;16889;67.864;24.990;2023-12-20T08:38:58;-6.50;99.90
30063;DHT22;16889;67.864;24.990;2023-12-20T08:43:46;-6.50;99.90
30063;DHT22;16889;67.864;24.990;2023-12-20T08:48:32;-6.50;99.90
30063;DHT22;16889;67.864;24.990;2023-12-20T08:53:18;-6.50;99.90
30063;DHT22;16889;67.864;24.990;2023-12-20T08:58:05;-6.40;99.90
30063;DHT22;16889;67.864;24.990;2023-12-20T09:02:53;-6.40;99.90
30063;DHT22;16889;67.864;24.990;2023-12-20T09:07:40;-6.50;99.90
30063;DHT22;16889;67.864;24.990;2023-12-20T09:12:26;-6.60;99.90
30063;DHT22;16889;67.864;24.990;2023-12-20T09:17:13;-6.50;99.90
30063;DHT22;16889;67.864;24.990;2023-12-20T09:21:59;-6.40;99.90
30063;DHT22;16889;67.864;24.990;2023-12-20T09:26:45;-6.50;99.90
30063;DHT22;16889;67.864;24.990;2023-12-20T09:31:31;-6.60;99.90
30063;DHT22;16889;67.864;24.990;2023-12-20T09:36:17;-6.70;99.90
30063;DHT22;16889;67.864;24.990;2023-12-20T09:41:04;-6.60;99.90
30063;DHT22;16889;67.864;24.990;2023-12-20T09:45:53;-6.60;99.90
30063;DHT22;16889;67.864;24.990;2023-12-20T09:50:41;-6.60;99.90
30063;DHT22;16889;67.864;24.990;2023-12-20T09:55:27;-6.50;99.90
30063;DHT22;16889;67.864;24.990;2023-12-20T10:00:15;-6.50;99.90
30063;DHT22;16889;67.864;24.990;2023-12-20T10:05:06;-6.60;99.90
30063;DHT22;16889;67.864;24.990;2023-12-20T10:09:54;-6.60;99.90
30063;DHT22;16889;67.864;24.990;2023-12-20T10:14:41;-6.70;99.90
30063;DHT22;16889;67.864;24.990;2023-12-20T10:19:27;-6.70;99.90
30063;DHT22;16889;67.864;24.990;2023-12-20T10:24:19;-6.70;99.90
30063;DHT22;16889;67.864;24.990;2023-12-20T10:29:06;-6.70;99.90
30063;DHT22;16889;67.864;24.990;2023-12-20T10:33:52;-6.70;99.90
30063;DHT22;16889;67.864;24.990;2023-12-20T10:38:40;-6.70;99.90
30063;DHT22;16889;67.864;24.990;2023-12-20T10:43:28;-6.80;99.90
30063;DHT22;16889;67.864;24.990;2023-12-20T10:48:17;-7.00;99.90
30063;DHT22;16889;67.864;24.990;2023-12-20T10:53:04;-7.10;99.90
30063;DHT22;16889;67.864;24.990;2023-12-20T10:57:51;-7.10;99.90
30063;DHT22;16889;67.864;24.990;2023-12-20T11:02:39;-7.20;99.90
30063;DHT22;16889;67.864;24.990;2023-12-20T11:07:33;-7.40;99.90
30063;DHT22;16889;67.864;24.990;2023-12-20T11:12:47;-7.40;99.90
30063;DHT22;16889;67.864;24.990;2023-12-20T11:17:34;-7.40;99.90
30063;DHT22;16889;67.864;24.990;2023-12-20T11:22:20;-7.50;99.90
30063;DHT22;16889;67.864;24.990;2023-12-20T11:27:06;-7.70;99.90
30063;DHT22;16889;67.864;24.990;2023-12-20T11:31:54;-7.50;99.90
30063;DHT22;16889;67.864;24.990;2023-12-20T11:36:40;-7.80;99.90
30063;DHT22;16889;67.864;24.990;2023-12-20T11:41:27;-8.00;99.90
30063;DHT22;16889;67.864;24.990;2023-12-20T11:46:13;-8.10;99.90
30063;DHT22;16889;67.864;24.990;2023-12-20T11:50:59;-8.10;99.90
30063;DHT22;16889;67.864;24.990;2023-12-20T11:55:50;-8.10;99.90
30063;DHT22;16889;67.864;24.990;2023-12-20T12:00:36;-8.30;99.90
30063;DHT22;16889;67.864;24.990;2023-12-20T12:05:22;-8.50;99.90
30063;DHT22;16889;67.864;24.990;2023-12-20T12:10:09;-8.80;99.90
30063;DHT22;16889;67.864;24.990;2023-12-20T12:14:55;-9.30;99.90
30063;DHT22;16889;67.864;24.990;2023-12-20T12:19:43;-9.50;99.90
30063;DHT22;16889;67.864;24.990;2023-12-20T12:24:29;-9.80;99.90
30063;DHT22;16889;67.864;24.990;2023-12-20T12:29:15;-10.10;99.90
30063;DHT22;16889;67.864;24.990;2023-12-20T12:34:01;-10.50;99.90
30063;DHT22;16889;67.864;24.990;2023-12-20T12:38:47;-11.20;99.90
30063;DHT22;16889;67.864;24.990;2023-12-20T12:43:33;-11.50;99.90
30063;DHT22;16889;67.864;24.990;2023-12-20T12:48:19;-11.70;99.90
30063;DHT22;16889;67.864;24.990;2023-12-20T12:53:05;-11.80;99.90
30063;DHT22;16889;67.864;24.990;2023-12-20T12:57:51;-11.70;99.90
30063;DHT22;16889;67.864;24.990;2023-12-20T13:02:37;-11.70;99.90
30063;DHT22;16889;67.864;24.990;2023-12-20T13:07:23;-11.70;99.90
30063;DHT22;16889;67.864;24.990;2023-12-20T13:12:09;-11.60;99.90
30063;DHT22;16889;67.864;24.990;2023-12-20T13:16:55;-11.60;99.90
30063;DHT22;16889;67.864;24.990;2023-12-20T13:21:41;-11.50;99.90
30063;DHT22;16889;67.864;24.990;2023-12-20T13:26:27;-11.70;99.90
30063;DHT22;16889;67.864;24.990;2023-12-20T13:31:13;-12.10;99.90
30063;DHT22;16889;67.864;24.990;2023-12-20T13:35:59;-12.70;99.90
30063;DHT22;16889;67.864;24.990;2023-12-20T13:40:45;-13.10;99.90
30063;DHT22;16889;67.864;24.990;2023-12-20T13:45:31;-13.10;99.90
30063;DHT22;16889;67.864;24.990;2023-12-20T13:50:17;-13.20;99.90
30063;DHT22;16889;67.864;24.990;2023-12-20T13:55:03;-13.40;99.90
30063;DHT22;16889;67.864;24.990;2023-12-20T13:59:51;-13.40;99.90
30063;DHT22;16889;67.864;24.990;2023-12-20T14:04:37;-13.30;99.90
30063;DHT22;16889;67.864;24.990;2023-12-20T14:09:25;-13.10;99.90
30063;DHT22;16889;67.864;24.990;2023-12-20T14:14:11;-12.70;99.90
30063;DHT22;16889;67.864;24.990;2023-12-20T14:18:56;-12.40;99.90
30063;DHT22;16889;67.864;24.990;2023-12-20T14:23:44;-12.10;99.90
30063;DHT22;16889;67.864;24.990;2023-12-20T14:28:30;-11.70;99.90
30063;DHT22;16889;67.864;24.990;2023-12-20T14:33:16;-11.30;99.90
30063;DHT22;16889;67.864;24.990;2023-12-20T14:38:02;-11.10;99.90
30063;DHT22;16889;67.864;24.990;2023-12-20T14:42:47;-11.00;99.90
30063;DHT22;16889;67.864;24.990;2023-12-20T14:47:34;-10.80;99.90
30063;DHT22;16889;67.864;24.990;2023-12-20T14:52:21;-10.60;99.90
30063;DHT22;16889;67.864;24.990;2023-12-20T14:57:08;-10.50;99.90
30063;DHT22;16889;67.864;24.990;2023-12-20T15:01:55;-10.50;99.90
30063;DHT22;16889;67.864;24.990;2023-12-20T15:06:41;-10.30;99.90
30063;DHT22;16889;67.864;24.990;2023-12-20T15:11:28;-10.20;99.90
30063;DHT22;16889;67.864;24.990;2023-12-20T15:16:14;-10.00;99.90
30063;DHT22;16889;67.864;24.990;2023-12-20T15:21:00;-9.90;99.90
30063;DHT22;16889;67.864;24.990;2023-12-20T15:25:46;-9.80;99.90
30063;DHT22;16889;67.864;24.990;2023-12-20T15:30:32;-9.50;99.90
30063;DHT22;16889;67.864;24.990;2023-12-20T15:35:18;-9.60;99.90
30063;DHT22;16889;67.864;24.990;2023-12-20T15:40:07;-9.70;99.90
30063;DHT22;16889;67.864;24.990;2023-12-20T15:44:53;-9.60;99.90
30063;DHT22;16889;67.864;24.990;2023-12-20T15:49:40;-9.70;99.90
30063;DHT22;16889;67.864;24.990;2023-12-20T15:54:26;-9.80;99.90
30063;DHT22;16889;67.864;24.990;2023-12-20T15:59:12;-9.70;99.90
30063;DHT22;16889;67.864;24.990;2023-12-20T16:03:58;-9.70;99.90
30063;DHT22;16889;67.864;24.990;2023-12-20T16:08:44;-9.60;99.90
30063;DHT22;16889;67.864;24.990;2023-12-20T16:13:30;-9.60;99.90
30063;DHT22;16889;67.864;24.990;2023-12-20T16:18:15;-9.60;99.90
30063;DHT22;16889;67.864;24.990;2023-12-20T16:23:01;-9.60;99.90
30063;DHT22;16889;67.864;24.990;2023-12-20T16:27:47;-9.70;99.90
30063;DHT22;16889;67.864;24.990;2023-12-20T16:32:33;-9.60;99.90
30063;DHT22;16889;67.864;24.990;2023-12-20T16:37:19;-9.60;99.90
30063;DHT22;16889;67.864;24.990;2023-12-20T16:42:05;-9.70;99.90
30063;DHT22;16889;67.864;24.990;2023-12-20T16:46:51;-9.90;99.90
30063;DHT22;16889;67.864;24.990;2023-12-20T16:51:37;-10.00;99.90
30063;DHT22;16889;67.864;24.990;2023-12-20T16:56:23;-10.30;99.90
30063;DHT22;16889;67.864;24.990;2023-12-20T17:01:09;-10.20;99.90
30063;DHT22;16889;67.864;24.990;2023-12-20T17:05:57;-10.30;99.90
30063;DHT22;16889;67.864;24.990;2023-12-20T17:10:43;-10.40;99.90
30063;DHT22;16889;67.864;24.990;2023-12-20T17:15:29;-10.30;99.90
30063;DHT22;16889;67.864;24.990;2023-12-20T17:20:15;-10.30;99.90
30063;DHT22;16889;67.864;24.990;2023-12-20T17:25:00;-10.60;99.90
30063;DHT22;16889;67.864;24.990;2023-12-20T17:29:46;-10.80;99.90
30063;DHT22;16889;67.864;24.990;2023-12-20T17:34:32;-10.80;99.90
30063;DHT22;16889;67.864;24.990;2023-12-20T17:39:19;-10.80;99.90
30063;DHT22;16889;67.864;24.990;2023-12-20T17:44:05;-11.00;99.90
30063;DHT22;16889;67.864;24.990;2023-12-20T17:48:51;-11.10;99.90
30063;DHT22;16889;67.864;24.990;2023-12-20T17:53:37;-11.10;99.90
30063;DHT22;16889;67.864;24.990;2023-12-20T17:58:23;-11.20;99.90
30063;DHT22;16889;67.864;24.990;2023-12-20T18:03:09;-11.50;99.90
30063;DHT22;16889;67.864;24.990;2023-12-20T18:07:56;-11.50;99.90
30063;DHT22;16889;67.864;24.990;2023-12-20T18:12:41;-11.60;99.90
30063;DHT22;16889;67.864;24.990;2023-12-20T18:17:27;-11.70;99.90
30063;DHT22;16889;67.864;24.990;2023-12-20T18:22:13;-11.90;99.90
30063;DHT22;16889;67.864;24.990;2023-12-20T18:26:59;-12.00;99.90
30063;DHT22;16889;67.864;24.990;2023-12-20T18:31:45;-12.10;99.90
30063;DHT22;16889;67.864;24.990;2023-12-20T18:36:31;-12.10;99.90
30063;DHT22;16889;67.864;24.990;2023-12-20T18:41:17;-12.30;99.90
30063;DHT22;16889;67.864;24.990;2023-12-20T18:46:03;-12.40;99.90
30063;DHT22;16889;67.864;24.990;2023-12-20T18:50:49;-12.40;99.90
30063;DHT22;16889;67.864;24.990;2023-12-20T18:55:35;-12.60;99.90
30063;DHT22;16889;67.864;24.990;2023-12-20T19:00:21;-12.70;99.90
30063;DHT22;16889;67.864;24.990;2023-12-20T19:05:07;-12.70;99.90
30063;DHT22;16889;67.864;24.990;2023-12-20T19:09:53;-12.90;99.90
30063;DHT22;16889;67.864;24.990;2023-12-20T19:14:39;-12.90;99.90
30063;DHT22;16889;67.864;24.990;2023-12-20T19:19:25;-12.80;99.90
30063;DHT22;16889;67.864;24.990;2023-12-20T19:24:11;-12.80;99.90
30063;DHT22;16889;67.864;24.990;2023-12-20T19:28:57;-12.90;99.90
30063;DHT22;16889;67.864;24.990;2023-12-20T19:33:43;-12.70;99.90
30063;DHT22;16889;67.864;24.990;2023-12-20T19:38:31;-12.70;99.90
30063;DHT22;16889;67.864;24.990;2023-12-20T19:43:17;-12.80;99.90
30063;DHT22;16889;67.864;24.990;2023-12-20T19:48:03;-12.80;99.90
30063;DHT22;16889;67.864;24.990;2023-12-20T19:52:49;-13.20;99.90
30063;DHT22;16889;67.864;24.990;2023-12-20T19:57:35;-13.40;99.90
30063;DHT22;16889;67.864;24.990;2023-12-20T20:02:21;-13.60;99.90
30063;DHT22;16889;67.864;24.990;2023-12-20T20:07:07;-13.70;99.90
30063;DHT22;16889;67.864;24.990;2023-12-20T20:11:58;-14.10;99.90
30063;DHT22;16889;67.864;24.990;2023-12-20T20:16:44;-14.40;99.90
30063;DHT22;16889;67.864;24.990;2023-12-20T20:21:30;-14.40;99.90
30063;DHT22;16889;67.864;24.990;2023-12-20T20:26:16;-14.50;99.90
30063;DHT22;16889;67.864;24.990;2023-12-20T20:31:02;-14.70;99.90
30063;DHT22;16889;67.864;24.990;2023-12-20T20:35:48;-14.90;99.90
30063;DHT22;16889;67.864;24.990;2023-12-20T20:40:34;-15.10;99.90
30063;DHT22;16889;67.864;24.990;2023-12-20T20:45:21;-15.40;99.90
30063;DHT22;16889;67.864;24.990;2023-12-20T20:50:09;-15.50;99.90
30063;DHT22;16889;67.864;24.990;2023-12-20T20:54:55;-15.60;99.90
30063;DHT22;16889;67.864;24.990;2023-12-20T20:59:41;-16.10;99.90
30063;DHT22;16889;67.864;24.990;2023-12-20T21:04:29;-16.30;99.90
30063;DHT22;16889;67.864;24.990;2023-12-20T21:09:15;-16.80;99.90
30063;DHT22;16889;67.864;24.990;2023-12-20T21:14:01;-17.10;99.90
30063;DHT22;16889;67.864;24.990;2023-12-20T21:18:47;-17.30;99.90
30063;DHT22;16889;67.864;24.990;2023-12-20T21:23:33;-17.30;99.90
30063;DHT22;16889;67.864;24.990;2023-12-20T21:28:19;-17.20;99.90
30063;DHT22;16889;67.864;24.990;2023-12-20T21:33:05;-17.20;99.90
30063;DHT22;16889;67.864;24.990;2023-12-20T21:37:51;-17.20;99.90
30063;DHT22;16889;67.864;24.990;2023-12-20T21:42:37;-17.40;99.90
30063;DHT22;16889;67.864;24.990;2023-12-20T21:47:23;-17.80;99.90
30063;DHT22;16889;67.864;24.990;2023-12-20T21:52:09;-17.70;99.90
30063;DHT22;16889;67.864;24.990;2023-12-20T21:56:55;-17.90;99.90
30063;DHT22;16889;67.864;24.990;2023-12-20T22:01:42;-17.90;99.90
30063;DHT22;16889;67.864;24.990;2023-12-20T22:06:31;-17.90;99.90
30063;DHT22;16889;67.864;24.990;2023-12-20T22:11:17;-18.10;99.90
30063;DHT22;16889;67.864;24.990;2023-12-20T22:16:03;-18.40;99.90
30063;DHT22;16889;67.864;24.990;2023-12-20T22:20:50;-18.50;99.90
30063;DHT22;16889;67.864;24.990;2023-12-20T22:25:36;-18.50;99.90
30063;DHT22;16889;67.864;24.990;2023-12-20T22:30:22;-18.50;99.90
30063;DHT22;16889;67.864;24.990;2023-12-20T22:35:08;-18.70;99.90
30063;DHT22;16889;67.864;24.990;2023-12-20T22:39:55;-18.80;99.90
30063;DHT22;16889;67.864;24.990;2023-12-20T22:44:40;-18.70;99.90
30063;DHT22;16889;67.864;24.990;2023-12-20T22:49:26;-18.80;99.90
30063;DHT22;16889;67.864;24.990;2023-12-20T22:54:12;-18.80;99.90
30063;DHT22;16889;67.864;24.990;2023-12-20T22:58:59;-19.00;99.90
30063;DHT22;16889;67.864;24.990;2023-12-20T23:03:45;-19.30;99.90
30063;DHT22;16889;67.864;24.990;2023-12-20T23:08:31;-20.00;99.90
30063;DHT22;16889;67.864;24.990;2023-12-20T23:13:18;-20.80;99.90
30063;DHT22;16889;67.864;24.990;2023-12-20T23:18:04;-21.10;99.90
30063;DHT22;16889;67.864;24.990;2023-12-20T23:22:50;-21.20;99.90
30063;DHT22;16889;67.864;24.990;2023-12-20T23:27:36;-21.00;99.90
30063;DHT22;16889;67.864;24.990;2023-12-20T23:32:22;-20.70;99.90
30063;DHT22;16889;67.864;24.990;2023-12-20T23:37:08;-20.60;99.90
30063;DHT22;16889;67.864;24.990;2023-12-20T23:41:57;-20.70;99.90
30063;DHT22;16889;67.864;24.990;2023-12-20T23:46:43;-21.20;99.90
30063;DHT22;16889;67.864;24.990;2023-12-20T23:51:29;-21.40;99.90
30063;DHT22;16889;67.864;24.990;2023-12-20T23:56:14;-21.20;99.90
